Flight Number: EUR3019 Duration: 7:00
Departure: Baltimore Washington Intl (KBWI) at 07:00 Distance: 3173 Nm
Arrival: Gatwick Airport (EGKK) at 14:00 Equipment: B777

Weather Information
BALTIMORE-WASHINGTON INTERNATIONAL , MD, United States (KBWI) 39-10N 076-41W 59M Jan 22, 2018 - 02:54 AM EST / 2018.01.22 0754 UTC
Wind: from the NE (050 degrees) at 3 MPH (3 KT):0
Visibility: 10 mile(s):0
Sky conditions: overcast Temperature: 43.0 F (6.1 C) Dew Point: 39.0 F (3.9 C) Relative Humidity: 85% Pressure (altimeter): 30.12 in. Hg (1019 hPa)
ob: KBWI 220754Z 05003KT 10SM FEW070 BKN100 OVC250 06/04 A3012 RMK AO2 SLP199 T00610039 cycle: 8
Sunrise: 12:23 Sunset: 22:13 (UTC)

London / Gatwick Airport, United Kingdom (EGKK) 51-09N 000-11W 0M Jan 22, 2018 - 02:50 AM EST / 2018.01.22 0750 UTC
Wind: from the WNW (290 degrees) at 6 MPH (5 KT):0
Visibility: 5 mile(s):0
Sky conditions: mostly clear Weather: light rain Temperature: 46 F (8 C) Dew Point: 44 F (7 C) Relative Humidity: 93% Pressure (altimeter): 29.77 in. Hg (1008 hPa)
ob: EGKK 220750Z 29005KT 9000 -RA FEW027 08/07 Q1008 cycle: 8
Sunrise: 07:54 Sunset: 16:30 (UTC)

TAF:2018/01/22 06:15 TAF EGKK 220509Z 2206/2312 26012KT 9999 SCT030 PROB30 TEMPO 2206/2210 8000 -RA BKN014 BECMG 2221/2224 20008KT PROB30 TEMPO 2303/2305 BKN008 BECMG 2305/2308 6000 -RA BKN008 TEMPO 2307/2312 22015G25KT 3000 RADZ BKN004

Previous Pireps for this route
Date Aircraft Flight time Fuel used Landing rate On time
2013-02-04A34007.09176480-953No
2013-12-03B7479.10171000Yes
2016-06-07B77706.36127079-304No
(pireps marked green are flown by you)

Route map